Scroggsfield, Ohio
Current Conditions -  °F | °C
As of 2:53 AM on Thursday 29 Jan 2015 (Local Time) from KPHD Reporting Station
Scattered Clouds Scattered Clouds  
Wind Chill: 24°   Ceiling: Unl
Heat Index: 24°   Visibility: 10mi
Dew Point: 14°   Wind: 3mph
Humidity: 65%   Direction: NA
Pressure: 30.18"   Gusts: NA
Location:  40.5653°N, 81.0724°W
Report Text: KPHD 290753Z AUTO VRB03KT 10SM SCT120 M04/M10 A3018 RMK AO2 SLP232 T10441100
Loading
Personal Weather Stations






























Interactive Weather Map New forecast layout! Learn more

10-Day Weather Forecast

Advertisements
Track Severe Weather on mobile